Time;durP1;ratioP1;P1;durP2;ratioP2;P2;SDS_P1;SDS_P2;PMS_P1;PMS_P2;Temp;Humidity;BMP_temperature;BMP_pressure;BME280_temperature;BME280_humidity;BME280_pressure;Samples;Min_cycle;Max_cycle;Signal;HPM_P1;HPM_P2
2020/12/25 00:02:09;;;;;;;7.33;3.40;;;2.80;99.90;;;;;;5010291;28;20806;-53
2020/12/25 00:04:37;;;;;;;4.90;2.80;;;2.80;99.90;;;;;;5010854;28;20879;-53
2020/12/25 00:07:04;;;;;;;5.60;3.33;;;2.80;99.90;;;;;;5011372;28;20480;-53
2020/12/25 00:09:32;;;;;;;6.50;2.83;;;2.90;99.90;;;;;;5010582;28;20520;-53
2020/12/25 00:12:00;;;;;;;6.63;3.33;;;2.80;99.90;;;;;;5010068;28;20496;-53
2020/12/25 00:14:27;;;;;;;6.27;3.10;;;2.90;99.90;;;;;;5011196;28;20566;-53
2020/12/25 00:16:58;;;;;;;6.83;2.83;;;2.90;99.90;;;;;;5011026;28;20503;-53
2020/12/25 00:19:26;;;;;;;7.13;2.93;;;2.80;99.90;;;;;;5009897;28;20485;-53
2020/12/25 00:21:53;;;;;;;8.10;3.10;;;2.80;99.90;;;;;;5009985;28;20486;-53
2020/12/25 00:24:20;;;;;;;7.43;2.93;;;2.80;99.90;;;;;;5010995;28;20476;-53
2020/12/25 00:26:48;;;;;;;7.67;2.90;;;2.80;99.90;;;;;;5010184;28;20484;-53
2020/12/25 00:29:16;;;;;;;7.60;2.87;;;2.80;99.90;;;;;;5008359;28;20841;-53
2020/12/25 00:31:45;;;;;;;7.07;3.10;;;2.80;99.90;;;;;;5007044;28;20520;-53
2020/12/25 00:34:13;;;;;;;4.97;2.77;;;2.80;99.90;;;;;;5008203;28;21005;-53
2020/12/25 00:36:43;;;;;;;4.57;2.80;;;2.80;99.90;;;;;;5009535;28;20833;-53
2020/12/25 00:39:12;;;;;;;4.63;2.83;;;2.80;99.90;;;;;;5008563;28;20888;-53
2020/12/25 00:41:43;;;;;;;5.07;2.60;;;2.80;99.90;;;;;;5006289;28;20481;-53
2020/12/25 00:44:12;;;;;;;9.17;3.00;;;2.70;99.90;;;;;;5008000;28;20520;-53
2020/12/25 00:46:41;;;;;;;4.87;2.57;;;2.70;99.90;;;;;;5006887;28;20538;-53
2020/12/25 00:49:11;;;;;;;9.77;2.90;;;2.70;99.90;;;;;;5007367;28;20495;-53
2020/12/25 00:51:39;;;;;;;5.67;2.80;;;2.70;99.90;;;;;;5005031;28;20491;-53
2020/12/25 00:54:06;;;;;;;6.80;2.63;;;2.60;99.90;;;;;;5006181;28;20484;-54
2020/12/25 00:56:47;;;;;;;4.90;2.83;;;2.50;99.90;;;;;;4987622;28;20560;-53
2020/12/25 00:59:18;;;;;;;5.83;2.60;;;2.50;99.90;;;;;;5003326;28;20486;-53
2020/12/25 01:01:50;;;;;;;6.70;3.00;;;2.40;99.90;;;;;;5005823;28;21008;-53
2020/12/25 01:04:19;;;;;;;8.13;2.83;;;2.40;99.90;;;;;;5007349;28;20549;-53
2020/12/25 01:06:46;;;;;;;5.77;2.80;;;2.40;99.90;;;;;;5007578;28;20575;-53
2020/12/25 01:09:14;;;;;;;7.40;2.83;;;2.40;99.90;;;;;;5007531;28;20566;-53
2020/12/25 01:11:41;;;;;;;7.27;2.80;;;2.40;99.90;;;;;;5006758;28;20906;-53
2020/12/25 01:14:09;;;;;;;5.60;2.70;;;2.30;99.90;;;;;;5006416;28;20527;-53
2020/12/25 01:16:37;;;;;;;5.30;2.47;;;2.40;99.90;;;;;;5007771;28;20941;-53
2020/12/25 01:19:05;;;;;;;7.83;2.47;;;2.30;99.90;;;;;;5007294;28;20565;-53
2020/12/25 01:21:32;;;;;;;8.67;3.30;;;2.40;99.90;;;;;;5006265;28;20487;-53
2020/12/25 01:24:00;;;;;;;5.27;2.67;;;2.30;99.90;;;;;;5006909;28;20501;-53
2020/12/25 01:26:27;;;;;;;6.90;2.90;;;2.30;99.90;;;;;;5006823;28;20536;-53
2020/12/25 01:29:03;;;;;;;6.10;2.70;;;2.30;99.90;;;;;;5006193;28;20912;-53
2020/12/25 01:31:31;;;;;;;5.97;3.00;;;2.30;99.90;;;;;;5000445;28;20480;-53
2020/12/25 01:33:58;;;;;;;8.43;3.20;;;2.30;99.90;;;;;;5009072;28;21050;-54
2020/12/25 01:36:27;;;;;;;11.17;3.20;;;2.20;99.90;;;;;;5008856;28;20562;-53
2020/12/25 01:38:54;;;;;;;6.93;2.97;;;2.20;99.90;;;;;;5009032;28;20476;-53
2020/12/25 01:41:21;;;;;;;8.07;2.93;;;2.20;99.90;;;;;;5008803;28;20926;-53
2020/12/25 01:43:49;;;;;;;7.07;2.73;;;2.30;99.90;;;;;;5009356;28;20567;-53
2020/12/25 01:46:17;;;;;;;4.80;2.83;;;2.30;99.90;;;;;;5009356;28;20934;-53
2020/12/25 01:48:44;;;;;;;6.57;3.37;;;2.40;99.90;;;;;;5008153;28;20476;-53
2020/12/25 01:51:17;;;;;;;9.87;3.03;;;2.40;99.90;;;;;;5007840;28;20484;-53
2020/12/25 01:53:50;;;;;;;7.17;3.07;;;2.40;99.90;;;;;;5009222;28;20481;-53
2020/12/25 01:56:18;;;;;;;8.37;2.90;;;2.40;99.90;;;;;;5009240;28;20911;-53
2020/12/25 01:58:46;;;;;;;4.40;2.53;;;2.40;99.90;;;;;;5009043;28;20480;-53
2020/12/25 02:01:14;;;;;;;6.47;2.60;;;2.40;99.90;;;;;;5008164;28;20480;-53
2020/12/25 02:03:42;;;;;;;7.23;2.37;;;2.40;99.90;;;;;;4991143;28;21374;-53
2020/12/25 02:06:09;;;;;;;9.63;2.50;;;2.30;99.90;;;;;;5009025;28;20495;-53
2020/12/25 02:08:36;;;;;;;4.90;2.27;;;2.30;99.90;;;;;;5009171;28;20514;-53
2020/12/25 02:11:05;;;;;;;8.90;2.50;;;2.30;99.90;;;;;;5007744;28;21008;-53
2020/12/25 02:13:33;;;;;;;7.60;2.00;;;2.20;99.90;;;;;;5008002;28;20565;-53
2020/12/25 02:16:00;;;;;;;6.17;2.27;;;2.20;99.90;;;;;;5008837;28;21064;-53
2020/12/25 02:18:37;;;;;;;8.33;2.30;;;2.20;99.90;;;;;;5008330;28;20497;-53
2020/12/25 02:21:06;;;;;;;7.73;2.80;;;2.10;99.90;;;;;;5007884;28;20495;-53
2020/12/25 02:23:33;;;;;;;9.13;2.67;;;2.00;99.90;;;;;;5008476;28;20475;-53
2020/12/25 02:26:00;;;;;;;6.63;2.40;;;1.90;99.90;;;;;;5005149;28;20496;-53
2020/12/25 02:28:28;;;;;;;7.13;2.80;;;1.90;99.90;;;;;;4990988;28;20574;-53
2020/12/25 02:30:55;;;;;;;7.43;2.83;;;1.90;99.90;;;;;;5006579;28;21030;-53
2020/12/25 02:33:26;;;;;;;6.87;3.07;;;1.90;99.90;;;;;;5008031;28;20564;-53
2020/12/25 02:35:54;;;;;;;7.23;2.70;;;1.90;99.90;;;;;;5008703;28;20483;-53
2020/12/25 02:38:22;;;;;;;5.90;3.13;;;1.80;99.90;;;;;;5008264;28;20526;-53
2020/12/25 02:40:49;;;;;;;8.43;3.10;;;1.80;99.90;;;;;;5007232;28;20550;-53
2020/12/25 02:43:16;;;;;;;6.23;2.57;;;1.80;99.90;;;;;;5007584;28;21055;-53
2020/12/25 02:45:44;;;;;;;5.37;2.33;;;1.70;99.90;;;;;;5007947;28;20564;-53
2020/12/25 02:48:11;;;;;;;7.10;2.57;;;1.70;99.90;;;;;;5008399;28;20513;-53
2020/12/25 02:50:38;;;;;;;6.30;2.53;;;1.70;99.90;;;;;;5007229;28;20470;-53
2020/12/25 02:53:05;;;;;;;8.73;3.03;;;1.70;99.90;;;;;;5008052;28;20495;-53
2020/12/25 02:55:33;;;;;;;5.17;2.70;;;1.70;99.90;;;;;;5007215;28;20965;-53
2020/12/25 02:58:01;;;;;;;7.20;2.97;;;1.80;99.90;;;;;;5008405;28;20497;-53
2020/12/25 03:00:28;;;;;;;9.40;2.90;;;1.80;99.90;;;;;;5006625;28;20556;-54
2020/12/25 03:02:55;;;;;;;6.33;2.70;;;2.00;99.90;;;;;;5007581;28;21384;-53
2020/12/25 03:05:33;;;;;;;10.17;2.90;;;2.10;99.90;;;;;;5007906;28;20477;-53
2020/12/25 03:08:00;;;;;;;6.40;2.53;;;2.00;99.90;;;;;;5008024;28;20477;-53
2020/12/25 03:10:28;;;;;;;9.33;4.07;;;1.90;99.90;;;;;;5006883;28;21022;-54
2020/12/25 03:12:56;;;;;;;11.63;2.80;;;1.80;99.90;;;;;;5007365;28;20550;-53
2020/12/25 03:15:24;;;;;;;10.80;3.10;;;1.80;99.90;;;;;;5008324;28;20535;-53
2020/12/25 03:17:51;;;;;;;4.63;2.20;;;1.80;99.90;;;;;;5008063;28;20473;-53
2020/12/25 03:20:18;;;;;;;9.17;2.60;;;1.60;99.90;;;;;;5007123;28;20496;-53
2020/12/25 03:22:46;;;;;;;6.07;2.63;;;1.60;99.90;;;;;;5006183;28;20558;-54
2020/12/25 03:25:13;;;;;;;9.33;3.30;;;1.80;99.90;;;;;;5012464;28;20572;-53
2020/12/25 03:27:40;;;;;;;6.27;3.00;;;2.10;99.90;;;;;;5005518;28;20902;-53
2020/12/25 03:30:09;;;;;;;9.97;4.03;;;2.30;99.90;;;;;;5007018;28;21919;-53
2020/12/25 03:32:36;;;;;;;8.27;3.37;;;2.40;99.90;;;;;;5007204;28;20473;-53
2020/12/25 03:35:04;;;;;;;11.37;3.70;;;2.40;99.90;;;;;;5007746;28;20523;-53
2020/12/25 03:37:31;;;;;;;7.87;3.90;;;2.40;99.90;;;;;;5006978;28;20511;-53
2020/12/25 03:39:59;;;;;;;7.27;3.87;;;2.50;99.90;;;;;;5007414;28;20496;-53
2020/12/25 03:42:26;;;;;;;9.73;3.47;;;2.50;99.90;;;;;;5006971;28;20576;-54
2020/12/25 03:44:55;;;;;;;13.00;3.57;;;2.40;99.90;;;;;;5007772;28;20501;-53
2020/12/25 03:47:25;;;;;;;7.80;2.77;;;2.40;99.90;;;;;;5007711;28;20476;-54
2020/12/25 03:49:52;;;;;;;6.93;3.07;;;2.40;99.90;;;;;;5007017;28;20509;-53
2020/12/25 03:52:20;;;;;;;8.60;3.30;;;2.40;99.90;;;;;;5006877;28;21034;-54
2020/12/25 03:54:47;;;;;;;8.57;3.47;;;2.60;99.90;;;;;;5007811;28;20474;-53
2020/12/25 03:57:14;;;;;;;9.37;3.40;;;2.70;99.90;;;;;;5007456;28;20480;-54
2020/12/25 03:59:42;;;;;;;7.37;3.37;;;2.70;99.90;;;;;;5007300;28;20909;-54
2020/12/25 04:02:09;;;;;;;10.03;3.70;;;2.70;99.90;;;;;;5006717;28;20575;-53
2020/12/25 04:04:38;;;;;;;8.17;3.17;;;2.80;99.90;;;;;;5007782;28;20509;-53
2020/12/25 04:07:05;;;;;;;9.13;3.97;;;2.70;99.90;;;;;;5007531;28;20509;-54
2020/12/25 04:09:33;;;;;;;7.83;3.63;;;2.80;99.90;;;;;;5007054;28;20535;-54
2020/12/25 04:12:00;;;;;;;7.77;3.50;;;2.50;99.90;;;;;;5007736;28;20485;-53
2020/12/25 04:14:28;;;;;;;8.30;2.90;;;2.40;99.90;;;;;;5010991;28;20480;-53
2020/12/25 04:16:55;;;;;;;6.37;2.87;;;2.00;99.90;;;;;;5010582;28;20531;-53
2020/12/25 04:19:22;;;;;;;10.53;3.67;;;2.30;99.90;;;;;;5010548;28;20911;-53
2020/12/25 04:21:51;;;;;;;9.00;3.17;;;2.40;99.90;;;;;;5008054;28;21037;-53
2020/12/25 04:24:18;;;;;;;9.77;3.30;;;2.30;99.90;;;;;;5008849;28;20912;-53
2020/12/25 04:26:46;;;;;;;6.13;3.03;;;2.40;99.90;;;;;;5007037;28;20504;-53
2020/12/25 04:29:14;;;;;;;9.63;3.13;;;2.30;99.90;;;;;;5010115;28;20468;-53
2020/12/25 04:31:42;;;;;;;11.00;4.00;;;2.10;99.90;;;;;;5008632;28;20597;-54
2020/12/25 04:34:10;;;;;;;5.80;2.40;;;2.10;99.90;;;;;;5010531;28;20723;-53
2020/12/25 04:36:37;;;;;;;6.83;3.00;;;2.20;99.90;;;;;;5011163;28;20477;-54
2020/12/25 04:39:07;;;;;;;5.67;2.50;;;2.30;99.90;;;;;;5010657;28;20829;-54
2020/12/25 04:41:35;;;;;;;6.90;2.63;;;2.40;99.90;;;;;;5009679;28;20504;-53
2020/12/25 04:44:06;;;;;;;6.23;3.03;;;2.30;99.90;;;;;;5010451;28;21156;-53
2020/12/25 04:46:34;;;;;;;6.93;3.20;;;2.50;99.90;;;;;;5010484;28;20539;-54
2020/12/25 04:49:01;;;;;;;6.80;2.77;;;2.50;99.90;;;;;;5010203;28;20995;-54
2020/12/25 04:51:29;;;;;;;7.87;3.00;;;2.30;99.90;;;;;;5009652;28;20556;-53
2020/12/25 04:53:56;;;;;;;5.63;2.80;;;2.30;99.90;;;;;;5009680;28;21011;-55
2020/12/25 04:56:25;;;;;;;7.20;2.63;;;2.30;99.90;;;;;;5010014;28;20526;-54
2020/12/25 04:58:53;;;;;;;9.60;3.30;;;2.00;99.90;;;;;;5009856;28;20575;-54
2020/12/25 05:01:21;;;;;;;5.40;2.60;;;2.00;99.90;;;;;;5009432;28;20484;-53
2020/12/25 05:03:48;;;;;;;8.03;2.20;;;1.90;99.90;;;;;;5010296;28;20900;-54
2020/12/25 05:06:18;;;;;;;6.13;2.27;;;1.70;99.90;;;;;;5010278;28;20957;-53
2020/12/25 05:08:47;;;;;;;8.80;2.60;;;1.60;99.90;;;;;;5009791;28;20481;-54
2020/12/25 05:11:17;;;;;;;5.43;2.30;;;1.70;99.90;;;;;;5008912;28;20484;-54
2020/12/25 05:13:46;;;;;;;4.87;2.50;;;1.80;99.90;;;;;;5009801;28;20480;-54
2020/12/25 05:16:15;;;;;;;10.83;3.07;;;2.10;99.90;;;;;;5008354;28;20480;-53
2020/12/25 05:18:46;;;;;;;7.17;2.73;;;2.20;99.90;;;;;;5006365;28;20675;-54
2020/12/25 05:21:17;;;;;;;9.37;2.67;;;2.30;99.90;;;;;;5008390;28;20468;-54
2020/12/25 05:23:46;;;;;;;7.30;2.67;;;2.20;99.90;;;;;;5007239;28;20477;-54
2020/12/25 05:26:15;;;;;;;6.97;2.57;;;2.10;99.90;;;;;;5009626;28;20465;-54
2020/12/25 05:28:46;;;;;;;4.27;2.10;;;2.20;99.90;;;;;;5009670;28;20538;-53
2020/12/25 05:31:15;;;;;;;6.63;2.33;;;2.20;99.90;;;;;;5008868;28;20487;-54
2020/12/25 05:33:42;;;;;;;6.97;2.40;;;2.20;99.90;;;;;;5009760;28;20558;-54
2020/12/25 05:36:13;;;;;;;5.77;2.10;;;2.10;99.90;;;;;;5009599;28;20477;-53
2020/12/25 05:38:49;;;;;;;6.40;2.37;;;2.20;99.90;;;;;;5010029;28;21266;-53
2020/12/25 05:41:17;;;;;;;5.67;2.40;;;2.10;99.90;;;;;;5009277;28;20647;-55
2020/12/25 05:43:49;;;;;;;8.77;2.17;;;2.20;99.90;;;;;;5009462;28;20925;-53
2020/12/25 05:46:17;;;;;;;6.60;2.67;;;2.20;99.90;;;;;;5009532;28;20492;-53
2020/12/25 05:48:50;;;;;;;6.50;2.23;;;2.20;99.90;;;;;;5009091;28;20520;-54
2020/12/25 05:51:22;;;;;;;6.43;2.30;;;2.00;99.90;;;;;;5009000;28;20829;-53
2020/12/25 05:53:53;;;;;;;8.53;2.07;;;1.90;99.90;;;;;;5009230;28;20488;-54
2020/12/25 05:56:21;;;;;;;6.53;1.80;;;2.00;99.90;;;;;;5009452;28;20891;-55
2020/12/25 05:58:53;;;;;;;5.80;1.90;;;1.90;99.90;;;;;;5008776;28;20484;-54
2020/12/25 06:01:21;;;;;;;6.23;2.17;;;2.20;99.90;;;;;;5008426;28;21007;-54
2020/12/25 06:03:48;;;;;;;5.57;2.13;;;2.20;99.90;;;;;;5009341;28;20824;-55
2020/12/25 06:06:23;;;;;;;10.53;2.50;;;2.20;99.90;;;;;;5008657;28;20837;-54
2020/12/25 06:08:59;;;;;;;11.00;2.30;;;2.40;99.90;;;;;;5008688;28;21016;-54
2020/12/25 06:11:31;;;;;;;8.43;2.33;;;2.40;99.90;;;;;;5007624;28;20489;-53
2020/12/25 06:13:59;;;;;;;5.27;2.07;;;2.30;99.90;;;;;;5009047;28;20559;-54
2020/12/25 06:16:28;;;;;;;7.27;2.20;;;2.20;99.90;;;;;;5008632;28;21014;-53
2020/12/25 06:19:08;;;;;;;8.87;2.03;;;2.20;99.90;;;;;;5006802;28;20485;-54
2020/12/25 06:21:53;;;;;;;6.57;2.20;;;2.40;99.90;;;;;;5005793;28;20472;-55
2020/12/25 06:24:30;;;;;;;6.07;2.30;;;2.10;99.90;;;;;;5005329;28;20530;-54
2020/12/25 06:27:00;;;;;;;6.33;2.03;;;2.10;99.90;;;;;;5008980;28;20478;-54
2020/12/25 06:29:29;;;;;;;8.20;3.00;;;2.10;99.90;;;;;;5008489;28;20484;-54
2020/12/25 06:31:58;;;;;;;7.73;2.67;;;2.20;99.90;;;;;;5007789;28;20513;-54
2020/12/25 06:34:42;;;;;;;7.67;2.00;;;2.30;99.90;;;;;;5008457;28;20570;-54
2020/12/25 06:37:13;;;;;;;8.17;2.23;;;2.30;99.90;;;;;;5008250;28;21257;-54
2020/12/25 06:39:50;;;;;;;6.40;2.13;;;2.30;99.90;;;;;;5008207;28;20487;-54
2020/12/25 06:42:26;;;;;;;5.27;2.53;;;2.50;99.90;;;;;;5008103;28;20472;-55
2020/12/25 06:44:56;;;;;;;8.30;2.27;;;2.40;99.90;;;;;;5008413;28;20495;-54
2020/12/25 06:47:31;;;;;;;7.50;2.03;;;2.40;99.90;;;;;;5008395;28;20498;-53
2020/12/25 06:49:59;;;;;;;5.67;2.07;;;2.30;99.90;;;;;;5007901;28;20504;-54
2020/12/25 06:52:31;;;;;;;3.97;1.70;;;2.10;99.90;;;;;;5006662;28;20981;-56
2020/12/25 06:54:59;;;;;;;5.13;2.00;;;2.10;99.90;;;;;;5008515;28;20855;-54
2020/12/25 06:57:28;;;;;;;6.73;1.97;;;2.10;99.90;;;;;;5007653;28;20555;-54
2020/12/25 07:00:03;;;;;;;7.30;2.00;;;2.00;99.90;;;;;;5007424;28;20488;-53
2020/12/25 07:02:33;;;;;;;4.50;1.57;;;2.10;99.90;;;;;;5007597;28;20551;-53
2020/12/25 07:05:02;;;;;;;2.67;1.23;;;1.70;99.90;;;;;;5008612;28;20503;-54
2020/12/25 07:07:32;;;;;;;3.07;1.40;;;1.50;99.90;;;;;;5008075;28;20559;-54
2020/12/25 07:10:06;;;;;;;5.37;1.40;;;1.30;99.90;;;;;;5007636;28;20480;-54
2020/12/25 07:12:39;;;;;;;3.50;1.30;;;1.20;99.90;;;;;;5008099;28;20491;-54
2020/12/25 07:15:08;;;;;;;3.17;1.20;;;1.10;99.90;;;;;;5007533;28;20806;-54
2020/12/25 07:17:36;;;;;;;6.50;1.60;;;1.10;99.90;;;;;;5006338;28;20996;-54
2020/12/25 07:20:09;;;;;;;3.50;1.30;;;1.00;99.90;;;;;;5007503;28;21006;-54
2020/12/25 07:22:36;;;;;;;4.53;1.60;;;1.00;99.90;;;;;;5006877;28;20836;-54
2020/12/25 07:25:08;;;;;;;7.13;2.00;;;1.00;99.90;;;;;;5006404;28;21005;-54
2020/12/25 07:27:37;;;;;;;6.27;1.50;;;0.90;99.90;;;;;;5006683;28;20507;-55
2020/12/25 07:30:05;;;;;;;6.60;1.80;;;0.90;99.90;;;;;;5006263;28;20547;-54
2020/12/25 07:32:33;;;;;;;4.10;2.00;;;0.90;99.90;;;;;;5005941;28;20567;-54
2020/12/25 07:35:05;;;;;;;9.50;1.60;;;0.90;99.90;;;;;;5006701;28;20887;-54
2020/12/25 07:37:32;;;;;;;3.37;1.53;;;0.80;99.90;;;;;;5006425;28;20510;-54
2020/12/25 07:40:05;;;;;;;4.33;2.47;;;0.80;99.90;;;;;;5006091;28;20478;-54
2020/12/25 07:42:33;;;;;;;4.77;1.80;;;0.70;99.90;;;;;;5005917;28;20507;-54
2020/12/25 07:45:01;;;;;;;4.10;1.70;;;0.80;99.90;;;;;;5006461;28;20482;-53
2020/12/25 07:47:29;;;;;;;4.23;1.83;;;0.80;99.90;;;;;;5007558;28;21179;-54
2020/12/25 07:49:57;;;;;;;3.93;2.00;;;0.80;99.90;;;;;;5009490;28;21051;-54
2020/12/25 07:52:25;;;;;;;5.97;1.83;;;0.80;99.90;;;;;;4991955;28;20534;-54
2020/12/25 07:55:10;;;;;;;4.67;2.10;;;0.70;99.90;;;;;;5009934;28;20475;-53
2020/12/25 07:57:38;;;;;;;4.40;1.60;;;0.70;99.90;;;;;;5007361;28;20518;-54
2020/12/25 08:00:06;;;;;;;7.30;2.10;;;0.70;99.90;;;;;;5020267;28;21034;-54
2020/12/25 08:02:35;;;;;;;3.20;1.77;;;0.70;99.90;;;;;;5005431;28;20546;-54
2020/12/25 08:05:08;;;;;;;5.23;2.07;;;0.70;99.90;;;;;;5001620;28;20480;-56
2020/12/25 08:07:41;;;;;;;4.53;1.90;;;0.70;99.90;;;;;;5001381;28;20479;-53
2020/12/25 08:10:12;;;;;;;5.47;1.80;;;0.70;99.90;;;;;;5000714;28;21117;-54
2020/12/25 08:12:43;;;;;;;6.40;2.20;;;0.80;99.90;;;;;;4999633;28;21381;-54
2020/12/25 08:15:13;;;;;;;4.80;2.30;;;0.80;99.90;;;;;;4999379;28;20530;-55
2020/12/25 08:17:40;;;;;;;4.20;2.30;;;0.80;99.90;;;;;;5000263;28;20491;-56
2020/12/25 08:20:09;;;;;;;6.43;3.50;;;0.80;99.90;;;;;;5001152;28;20479;-54
2020/12/25 08:22:37;;;;;;;12.13;5.93;;;0.90;99.90;;;;;;5000962;28;20494;-54
2020/12/25 08:25:05;;;;;;;13.50;7.43;;;1.00;99.90;;;;;;4999864;28;21018;-55
2020/12/25 08:27:34;;;;;;;10.20;6.47;;;1.00;99.90;;;;;;4999643;28;21027;-55
2020/12/25 08:30:03;;;;;;;9.70;5.83;;;1.00;99.90;;;;;;4999146;28;20488;-54
2020/12/25 08:32:32;;;;;;;9.43;5.63;;;1.10;99.90;;;;;;5001414;28;21264;-55
2020/12/25 08:35:15;;;;;;;15.33;6.13;;;1.10;99.90;;;;;;5000724;28;20558;-54
2020/12/25 08:37:54;;;;;;;11.90;4.67;;;1.10;99.90;;;;;;5000593;28;20622;-55
2020/12/25 08:40:22;;;;;;;9.53;4.40;;;1.20;99.90;;;;;;4999574;28;21079;-54
2020/12/25 08:42:50;;;;;;;8.67;3.10;;;1.20;99.90;;;;;;5001338;28;20575;-54
2020/12/25 08:45:20;;;;;;;6.73;4.00;;;1.20;99.90;;;;;;5000230;28;20999;-54
2020/12/25 08:48:12;;;;;;;4.30;3.13;;;1.20;99.90;;;;;;5001051;28;20578;-53
2020/12/25 08:50:41;;;;;;;7.83;3.00;;;1.40;99.90;;;;;;4999960;28;20495;-54
2020/12/25 08:53:18;;;;;;;10.33;3.00;;;1.60;99.90;;;;;;5001073;28;20546;-56
2020/12/25 08:55:48;;;;;;;7.40;2.67;;;1.50;99.90;;;;;;4997016;28;20478;-55
2020/12/25 08:58:22;;;;;;;5.03;2.60;;;1.70;99.90;;;;;;5000139;28;20484;-54
2020/12/25 09:00:58;;;;;;;7.73;3.07;;;1.80;99.90;;;;;;4999246;28;20492;-55
2020/12/25 09:03:37;;;;;;;6.30;2.23;;;1.80;99.90;;;;;;5000774;28;20575;-54
2020/12/25 09:06:06;;;;;;;5.93;2.27;;;1.70;99.90;;;;;;4998571;28;20491;-54
2020/12/25 09:08:34;;;;;;;9.70;2.50;;;1.70;99.90;;;;;;4999031;28;20582;-54
2020/12/25 09:11:01;;;;;;;4.03;2.13;;;1.60;99.90;;;;;;4998510;28;21051;-55
2020/12/25 09:13:28;;;;;;;6.70;2.10;;;1.60;99.90;;;;;;4999598;28;20578;-53
2020/12/25 09:15:55;;;;;;;5.30;1.80;;;1.60;99.90;;;;;;4997825;28;20602;-54
2020/12/25 09:18:23;;;;;;;8.30;2.33;;;1.60;99.90;;;;;;5000910;28;20521;-54
2020/12/25 09:20:50;;;;;;;4.43;1.53;;;1.70;99.90;;;;;;4999034;28;20526;-55
2020/12/25 09:23:18;;;;;;;7.23;2.30;;;1.60;99.90;;;;;;4999634;28;20797;-54
2020/12/25 09:25:46;;;;;;;5.40;1.90;;;1.80;99.90;;;;;;4996347;28;20484;-54
2020/12/25 09:28:13;;;;;;;8.00;2.27;;;1.80;99.90;;;;;;4999594;28;20515;-54
2020/12/25 09:30:40;;;;;;;8.97;2.10;;;1.80;99.90;;;;;;4998131;28;20486;-53
2020/12/25 09:33:08;;;;;;;6.17;2.17;;;1.90;99.90;;;;;;4999318;28;20505;-54
2020/12/25 09:35:35;;;;;;;5.50;1.80;;;1.80;99.90;;;;;;4997137;28;21208;-54
2020/12/25 09:38:02;;;;;;;9.63;2.20;;;2.00;99.90;;;;;;4998633;28;20949;-54
2020/12/25 09:40:31;;;;;;;6.50;1.77;;;2.10;99.90;;;;;;4997281;28;20847;-54
2020/12/25 09:42:58;;;;;;;4.03;1.47;;;2.00;99.90;;;;;;4998658;28;20484;-53
2020/12/25 09:45:25;;;;;;;3.93;1.50;;;1.90;99.90;;;;;;4997199;28;20571;-56
2020/12/25 09:47:52;;;;;;;8.77;2.30;;;2.00;99.90;;;;;;4998353;28;21066;-55
2020/12/25 09:50:20;;;;;;;7.20;2.40;;;2.10;99.90;;;;;;4997746;28;20491;-54
2020/12/25 09:52:47;;;;;;;9.77;2.30;;;2.40;99.90;;;;;;4998227;28;20972;-56
2020/12/25 09:55:14;;;;;;;6.20;1.80;;;2.50;99.90;;;;;;4996877;28;20476;-54
2020/12/25 09:57:43;;;;;;;8.80;2.87;;;2.70;99.90;;;;;;4998195;28;20487;-53
2020/12/25 10:00:12;;;;;;;10.50;2.17;;;2.90;99.90;;;;;;4995876;28;20483;-54
2020/12/25 10:02:39;;;;;;;4.20;1.63;;;3.00;99.90;;;;;;4995349;28;21003;-53
2020/12/25 10:05:10;;;;;;;7.13;1.70;;;2.70;99.90;;;;;;4993515;28;20488;-53
2020/12/25 10:07:38;;;;;;;7.13;1.77;;;2.60;99.90;;;;;;4996905;28;20535;-53
2020/12/25 10:10:08;;;;;;;5.30;1.80;;;2.50;99.90;;;;;;4995617;28;20839;-53
2020/12/25 10:12:36;;;;;;;5.90;1.63;;;2.80;99.90;;;;;;4999346;28;20567;-54
2020/12/25 10:15:05;;;;;;;4.57;1.60;;;2.80;99.90;;;;;;4997934;28;21124;-55
2020/12/25 10:17:32;;;;;;;3.40;1.50;;;2.70;99.90;;;;;;4997544;28;20598;-53
2020/12/25 10:19:59;;;;;;;8.10;2.00;;;2.60;99.90;;;;;;4998205;28;20483;-53
2020/12/25 10:22:26;;;;;;;5.57;1.40;;;2.60;99.90;;;;;;4998494;28;20484;-53
2020/12/25 10:24:54;;;;;;;4.50;1.40;;;2.60;99.90;;;;;;4998830;28;20516;-54
2020/12/25 10:27:39;;;;;;;6.03;1.60;;;2.60;99.90;;;;;;4998631;28;20776;-53
2020/12/25 10:30:07;;;;;;;3.53;1.30;;;2.60;99.90;;;;;;4998422;28;20570;-53
2020/12/25 10:32:38;;;;;;;6.00;1.30;;;2.70;99.90;;;;;;4999084;28;21144;-54
2020/12/25 10:35:06;;;;;;;6.03;1.10;;;2.70;99.90;;;;;;4998210;28;20554;-53
2020/12/25 10:37:36;;;;;;;4.40;1.40;;;2.70;99.90;;;;;;4998112;28;20493;-53
2020/12/25 10:40:05;;;;;;;2.60;1.20;;;2.80;99.90;;;;;;4998388;28;20927;-53
2020/12/25 10:42:32;;;;;;;4.17;1.23;;;2.80;99.90;;;;;;4997544;28;20931;-54
2020/12/25 10:45:00;;;;;;;7.13;1.80;;;2.90;99.90;;;;;;4998727;28;20932;-53
2020/12/25 10:47:28;;;;;;;3.50;1.30;;;2.90;99.90;;;;;;4996398;28;20489;-53
2020/12/25 10:49:55;;;;;;;2.63;1.10;;;3.00;99.90;;;;;;4996718;28;20559;-53
2020/12/25 10:52:22;;;;;;;7.30;1.43;;;3.00;99.90;;;;;;4996327;28;20582;-53
2020/12/25 10:54:50;;;;;;;3.57;1.43;;;3.10;99.90;;;;;;4996434;28;20488;-53
2020/12/25 10:57:17;;;;;;;4.23;1.27;;;3.20;99.90;;;;;;4995148;28;20509;-54
2020/12/25 10:59:44;;;;;;;7.53;1.50;;;3.20;99.90;;;;;;4997556;28;20495;-53
2020/12/25 11:02:12;;;;;;;2.27;1.20;;;3.30;99.90;;;;;;4995480;28;20584;-54
2020/12/25 11:04:41;;;;;;;5.43;1.17;;;3.40;99.90;;;;;;4997420;28;20522;-53
2020/12/25 11:07:10;;;;;;;6.60;1.37;;;3.40;99.90;;;;;;4992203;28;21058;-53
2020/12/25 11:09:40;;;;;;;5.40;1.40;;;3.50;99.90;;;;;;4996905;28;20517;-54
2020/12/25 11:12:09;;;;;;;3.47;1.20;;;3.60;99.90;;;;;;4995592;28;20931;-54
2020/12/25 11:14:39;;;;;;;4.20;1.27;;;3.60;99.90;;;;;;4996434;28;20838;-53
2020/12/25 11:17:08;;;;;;;3.93;1.10;;;3.70;99.90;;;;;;4995681;28;20595;-53
2020/12/25 11:19:37;;;;;;;4.13;1.57;;;3.80;99.90;;;;;;4995521;28;20470;-53
2020/12/25 11:22:11;;;;;;;3.80;1.30;;;3.90;99.90;;;;;;4999273;28;20487;-53
2020/12/25 11:24:41;;;;;;;3.07;1.20;;;3.90;99.90;;;;;;5004116;28;20489;-54
2020/12/25 11:27:11;;;;;;;3.70;1.63;;;4.00;99.90;;;;;;5002301;28;20513;-54
2020/12/25 11:29:41;;;;;;;5.53;1.40;;;4.00;99.90;;;;;;5000958;28;20577;-53
2020/12/25 11:32:11;;;;;;;4.77;1.20;;;4.10;99.90;;;;;;5002434;28;20944;-54
2020/12/25 11:34:41;;;;;;;1.93;1.00;;;4.20;99.90;;;;;;5004036;28;20488;-53
2020/12/25 11:37:13;;;;;;;3.43;1.00;;;4.20;99.90;;;;;;5001575;28;20574;-54
2020/12/25 11:39:43;;;;;;;4.13;1.13;;;4.20;99.90;;;;;;5002503;28;20491;-53
2020/12/25 11:42:13;;;;;;;2.33;1.10;;;4.20;99.90;;;;;;5003542;28;20488;-53
2020/12/25 11:44:42;;;;;;;3.13;1.30;;;4.10;99.90;;;;;;5003717;28;20531;-53
2020/12/25 11:47:11;;;;;;;3.63;1.27;;;4.10;99.90;;;;;;5001611;28;21010;-55
2020/12/25 11:49:40;;;;;;;4.43;1.53;;;4.00;99.90;;;;;;4992407;28;20480;-53
2020/12/25 11:52:14;;;;;;;2.87;1.20;;;4.00;99.90;;;;;;5002370;28;20492;-54
2020/12/25 11:54:44;;;;;;;2.73;1.20;;;4.00;99.90;;;;;;5003031;28;20472;-53
2020/12/25 11:57:13;;;;;;;4.00;1.20;;;4.10;99.90;;;;;;5001312;28;20688;-53
2020/12/25 11:59:42;;;;;;;3.63;1.00;;;4.10;99.90;;;;;;5003049;28;20486;-53
2020/12/25 12:02:11;;;;;;;3.30;1.00;;;4.10;99.90;;;;;;5001524;28;20484;-54
2020/12/25 12:04:40;;;;;;;1.87;0.87;;;4.00;99.90;;;;;;5001073;28;20840;-53
2020/12/25 12:07:08;;;;;;;2.53;1.10;;;4.00;99.90;;;;;;5001541;28;20557;-53
2020/12/25 12:09:38;;;;;;;2.33;1.10;;;4.10;99.90;;;;;;5001908;28;20493;-53
2020/12/25 12:12:07;;;;;;;8.63;1.20;;;4.20;99.90;;;;;;5002772;28;20517;-53
2020/12/25 12:14:38;;;;;;;3.70;0.97;;;4.20;99.90;;;;;;5003468;28;20492;-53
2020/12/25 12:17:10;;;;;;;4.93;1.17;;;4.20;99.90;;;;;;5001097;28;20531;-53
2020/12/25 12:19:41;;;;;;;4.30;1.00;;;4.20;99.90;;;;;;5002858;28;20479;-53
2020/12/25 12:22:09;;;;;;;3.03;0.90;;;4.20;99.90;;;;;;5002746;28;20870;-53
2020/12/25 12:24:39;;;;;;;3.47;0.90;;;4.20;99.90;;;;;;5003098;28;20571;-53
2020/12/25 12:27:08;;;;;;;3.33;0.80;;;4.20;99.90;;;;;;5001954;28;20481;-53
2020/12/25 12:29:37;;;;;;;3.67;1.00;;;4.10;99.90;;;;;;5002979;28;20496;-53
2020/12/25 12:32:07;;;;;;;4.23;1.10;;;4.10;99.90;;;;;;5002497;28;20979;-53
2020/12/25 12:34:38;;;;;;;4.47;1.03;;;4.10;99.90;;;;;;5000730;28;20497;-54
2020/12/25 12:37:07;;;;;;;3.97;1.00;;;4.10;99.90;;;;;;4982327;28;20579;-53
2020/12/25 12:39:36;;;;;;;2.80;1.10;;;4.10;99.90;;;;;;5000569;28;20835;-53
2020/12/25 12:42:07;;;;;;;3.63;1.00;;;4.10;99.90;;;;;;5000238;28;20551;-53
2020/12/25 12:44:36;;;;;;;2.90;0.87;;;4.10;99.90;;;;;;5000881;28;20485;-53
2020/12/25 12:47:05;;;;;;;4.07;0.70;;;4.10;99.90;;;;;;4999409;28;20476;-53
2020/12/25 12:49:34;;;;;;;2.43;0.60;;;4.10;99.90;;;;;;5000160;28;20957;-53
2020/12/25 12:52:04;;;;;;;3.43;0.73;;;4.00;99.90;;;;;;4999966;28;20586;-53
2020/12/25 12:54:32;;;;;;;3.83;0.80;;;4.00;99.90;;;;;;4999433;28;20480;-53
2020/12/25 12:57:06;;;;;;;3.20;0.80;;;4.00;99.90;;;;;;4998833;28;20675;-54
2020/12/25 12:59:38;;;;;;;2.63;0.73;;;4.00;99.90;;;;;;4999879;28;20930;-53
2020/12/25 13:02:09;;;;;;;5.10;1.00;;;4.00;99.90;;;;;;5004206;28;20987;-53
2020/12/25 13:04:38;;;;;;;3.40;0.73;;;4.00;99.90;;;;;;5011923;28;20469;-53
2020/12/25 13:07:07;;;;;;;3.10;0.80;;;4.00;99.90;;;;;;5009455;28;20986;-53